ETH713 LSGG-LIMC
Flight info
| Callsign | ETH713 |
|---|---|
| Flight time | N/A |
| Altitude | 19000 |
| Route | ROCCA T345 LURAG M135 ASTIG |
| Aircraft | B77L/H-SDE1E2E3FGHIJ2J3J4J5M1RWXY/LB1D1 |
Departure
| Time | 2026-05-05 20:43 |
|---|---|
| Airport | Geneva International Airport (LSGG) |
Arrival
| Time | N/A |
|---|---|
| Airport | Milan Malpensa International Airport (LIMC) |
| Time | Latitude | Longitude | Altitude | Speed | Heading |
|---|---|---|---|---|---|
| 2026-05-05 20:29 | 46.23763 | 6.11276 | 1410 ft | 0 kts | 135° |
| 2026-05-05 20:31 | 46.23763 | 6.11277 | 1410 ft | 0 kts | 136° |
| 2026-05-05 20:37 | 46.23765 | 6.11274 | 1400 ft | 3 kts | 136° |
| 2026-05-05 20:38 | 46.23782 | 6.11249 | 1411 ft | 3 kts | 133° |
| 2026-05-05 20:38 | 46.23790 | 6.11220 | 1411 ft | 4 kts | 72° |
| 2026-05-05 20:38 | 46.23775 | 6.11183 | 1412 ft | 1 kts | 46° |
| 2026-05-05 20:39 | 46.23786 | 6.11199 | 1411 ft | 9 kts | 46° |
| 2026-05-05 20:40 | 46.23837 | 6.11272 | 1412 ft | 12 kts | 44° |
| 2026-05-05 20:40 | 46.23905 | 6.11370 | 1413 ft | 16 kts | 46° |
| 2026-05-05 20:40 | 46.24055 | 6.11593 | 1408 ft | 24 kts | 45° |
| 2026-05-05 20:40 | 46.24546 | 6.12315 | 1407 ft | 26 kts | 46° |
| 2026-05-05 20:41 | 46.24734 | 6.12593 | 1406 ft | 27 kts | 44° |
| 2026-05-05 20:41 | 46.24842 | 6.12685 | 1404 ft | 15 kts | 17° |
| 2026-05-05 20:41 | 46.24945 | 6.12723 | 1406 ft | 15 kts | 358° |
| 2026-05-05 20:41 | 46.24980 | 6.12628 | 1408 ft | 9 kts | 235° |
| 2026-05-05 20:42 | 46.24942 | 6.12563 | 1409 ft | 9 kts | 226° |
| 2026-05-05 20:42 | 46.24806 | 6.12361 | 1410 ft | 56 kts | 225° |
| 2026-05-05 20:42 | 46.24327 | 6.11661 | 1409 ft | 137 kts | 225° |
| 2026-05-05 20:42 | 46.23563 | 6.10510 | 1777 ft | 165 kts | 227° |
| 2026-05-05 20:43 | 46.22756 | 6.09287 | 2655 ft | 163 kts | 226° |
| 2026-05-05 20:43 | 46.22020 | 6.08153 | 3653 ft | 158 kts | 225° |
| 2026-05-05 20:43 | 46.21205 | 6.06935 | 4178 ft | 180 kts | 225° |
| 2026-05-05 20:43 | 46.20276 | 6.05552 | 4679 ft | 202 kts | 225° |
| 2026-05-05 20:44 | 46.19225 | 6.04002 | 5101 ft | 232 kts | 224° |
| 2026-05-05 20:44 | 46.18032 | 6.02317 | 5854 ft | 245 kts | 224° |
| 2026-05-05 20:44 | 46.15970 | 5.99447 | 7544 ft | 248 kts | 218° |
| 2026-05-05 20:44 | 46.12572 | 5.98456 | 9360 ft | 269 kts | 169° |
| 2026-05-05 20:45 | 46.08038 | 6.08389 | 11903 ft | 362 kts | 112° |
| 2026-05-05 20:45 | 46.06231 | 6.15468 | 13652 ft | 380 kts | 118° |
| 2026-05-05 20:45 | 46.02784 | 6.21222 | 15217 ft | 388 kts | 138° |
| 2026-05-05 20:46 | 45.99011 | 6.26950 | 16975 ft | 400 kts | 136° |
| 2026-05-05 20:46 | 45.95200 | 6.32853 | 17845 ft | 404 kts | 136° |
| 2026-05-05 20:46 | 45.91327 | 6.38810 | 17966 ft | 411 kts | 136° |
| 2026-05-05 20:46 | 45.87425 | 6.44808 | 17948 ft | 410 kts | 136° |
| 2026-05-05 20:47 | 45.83552 | 6.50756 | 17977 ft | 406 kts | 136° |
| 2026-05-05 20:47 | 45.79694 | 6.56666 | 18059 ft | 408 kts | 136° |
| 2026-05-05 20:47 | 45.75791 | 6.62623 | 18931 ft | 410 kts | 136° |
| 2026-05-05 20:47 | 45.72031 | 6.69108 | 18958 ft | 437 kts | 128° |
| 2026-05-05 20:48 | 45.68659 | 6.76315 | 18943 ft | 443 kts | 127° |
| 2026-05-05 20:48 | 45.65225 | 6.83562 | 18938 ft | 437 kts | 128° |
| 2026-05-05 20:48 | 45.61770 | 6.90627 | 18969 ft | 431 kts | 128° |
| 2026-05-05 20:48 | 45.58339 | 6.97589 | 18971 ft | 430 kts | 128° |
| 2026-05-05 20:49 | 45.54872 | 7.04659 | 18903 ft | 433 kts | 129° |
| 2026-05-05 20:49 | 45.52455 | 7.09178 | 18914 ft | 429 kts | 135° |
| 2026-05-05 20:49 | 45.50352 | 7.12226 | 18962 ft | 424 kts | 142° |
| 2026-05-05 20:49 | 45.48172 | 7.14983 | 18980 ft | 425 kts | 142° |
| 2026-05-05 20:50 | 45.45950 | 7.17809 | 19003 ft | 430 kts | 142° |
| 2026-05-05 20:50 | 45.43728 | 7.20663 | 18943 ft | 429 kts | 142° |
| 2026-05-05 20:50 | 45.41522 | 7.23511 | 18988 ft | 426 kts | 142° |
| 2026-05-05 20:50 | 45.39335 | 7.26344 | 19002 ft | 420 kts | 142° |
| 2026-05-05 20:51 | 45.37228 | 7.29069 | 18989 ft | 400 kts | 142° |
| 2026-05-05 20:51 | 45.35219 | 7.31670 | 18944 ft | 380 kts | 142° |
| 2026-05-05 20:51 | 45.33317 | 7.34130 | 18984 ft | 360 kts | 143° |
| 2026-05-05 20:51 | 45.31505 | 7.36466 | 18977 ft | 344 kts | 143° |
| 2026-05-05 20:52 | 45.29777 | 7.38691 | 18981 ft | 327 kts | 143° |
| 2026-05-05 20:52 | 45.28117 | 7.40823 | 18977 ft | 320 kts | 143° |
| 2026-05-05 20:52 | 45.26464 | 7.42940 | 18991 ft | 320 kts | 143° |
| 2026-05-05 20:52 | 45.24822 | 7.45042 | 18995 ft | 320 kts | 143° |
| 2026-05-05 20:53 | 45.23170 | 7.47161 | 18992 ft | 321 kts | 143° |
| 2026-05-05 20:53 | 45.21496 | 7.49300 | 19003 ft | 325 kts | 144° |
| 2026-05-05 20:53 | 45.19819 | 7.51443 | 18956 ft | 323 kts | 143° |
| 2026-05-05 20:53 | 45.18164 | 7.53564 | 18806 ft | 319 kts | 144° |
| 2026-05-05 20:54 | 45.16522 | 7.55664 | 18604 ft | 317 kts | 144° |
| 2026-05-05 20:54 | 45.14885 | 7.57758 | 18376 ft | 317 kts | 144° |
| 2026-05-05 20:54 | 45.13251 | 7.59843 | 18110 ft | 316 kts | 144° |
| 2026-05-05 20:54 | 45.11617 | 7.61926 | 17819 ft | 316 kts | 143° |
| 2026-05-05 20:55 | 45.09988 | 7.64003 | 17555 ft | 315 kts | 143° |
| 2026-05-05 20:55 | 45.08365 | 7.66071 | 17315 ft | 314 kts | 143° |
| 2026-05-05 20:55 | 45.06745 | 7.68133 | 17077 ft | 312 kts | 143° |
| 2026-05-05 20:55 | 45.05137 | 7.70179 | 17023 ft | 310 kts | 144° |
| 2026-05-05 20:56 | 45.03530 | 7.72219 | 16985 ft | 310 kts | 144° |
| 2026-05-05 20:56 | 45.01917 | 7.74267 | 17001 ft | 313 kts | 143° |
| 2026-05-05 20:56 | 45.00281 | 7.76343 | 16977 ft | 316 kts | 143° |
| 2026-05-05 20:56 | 44.98662 | 7.78398 | 16975 ft | 316 kts | 143° |
| 2026-05-05 20:57 | 44.97033 | 7.80464 | 16986 ft | 315 kts | 143° |
| 2026-05-05 20:57 | 44.95397 | 7.82533 | 16976 ft | 315 kts | 144° |
| 2026-05-05 20:57 | 44.93818 | 7.84654 | 16959 ft | 315 kts | 134° |
| 2026-05-05 20:57 | 44.92804 | 7.87434 | 16981 ft | 326 kts | 110° |
| 2026-05-05 20:58 | 44.92578 | 7.90653 | 16988 ft | 337 kts | 92° |
| 2026-05-05 20:58 | 44.92713 | 7.94000 | 16997 ft | 345 kts | 90° |
| 2026-05-05 20:58 | 44.92880 | 7.97385 | 16984 ft | 346 kts | 90° |
| 2026-05-05 20:58 | 44.93048 | 8.00772 | 16971 ft | 345 kts | 90° |
| 2026-05-05 20:59 | 44.93206 | 8.04148 | 16958 ft | 344 kts | 90° |
| 2026-05-05 20:59 | 44.93354 | 8.07516 | 16964 ft | 343 kts | 91° |
| 2026-05-05 20:59 | 44.93494 | 8.10868 | 16969 ft | 342 kts | 91° |
| 2026-05-05 20:59 | 44.93628 | 8.14215 | 16969 ft | 342 kts | 91° |
| 2026-05-05 21:00 | 44.93761 | 8.17566 | 16985 ft | 342 kts | 91° |
| 2026-05-05 21:00 | 44.93892 | 8.20922 | 16982 ft | 342 kts | 91° |
| 2026-05-05 21:00 | 44.94020 | 8.24273 | 16981 ft | 343 kts | 91° |
| 2026-05-05 21:00 | 44.94148 | 8.27641 | 16976 ft | 344 kts | 91° |
| 2026-05-05 21:01 | 44.94143 | 8.30966 | 16961 ft | 333 kts | 105° |
| 2026-05-05 21:01 | 44.93357 | 8.33954 | 16981 ft | 321 kts | 129° |
| 2026-05-05 21:01 | 44.91902 | 8.36256 | 16983 ft | 310 kts | 148° |
| 2026-05-05 21:01 | 44.90056 | 8.37743 | 16984 ft | 303 kts | 165° |
| 2026-05-05 21:02 | 44.88018 | 8.38359 | 16974 ft | 297 kts | 182° |